sensor_id;sensor_type;location;lat;lon;timestamp;pressure;altitude;pressure_sealevel;temperature;humidity
13690;BME280;6917;52.194;9.894;2023-02-18T00:02:21;100736.06;;;6.73;77.35
13690;BME280;6917;52.194;9.894;2023-02-18T00:04:46;100748.00;;;6.77;77.66
13690;BME280;6917;52.194;9.894;2023-02-18T00:07:11;100733.88;;;6.80;77.10
13690;BME280;6917;52.194;9.894;2023-02-18T00:09:37;100730.63;;;6.78;77.73
13690;BME280;6917;52.194;9.894;2023-02-18T00:12:03;100719.75;;;6.78;77.48
13690;BME280;6917;52.194;9.894;2023-02-18T00:14:28;100722.19;;;6.79;77.70
13690;BME280;6917;52.194;9.894;2023-02-18T00:16:53;100723.56;;;6.82;77.72
13690;BME280;6917;52.194;9.894;2023-02-18T00:19:19;100727.09;;;6.82;77.61
13690;BME280;6917;52.194;9.894;2023-02-18T00:21:45;100729.81;;;6.77;77.77
13690;BME280;6917;52.194;9.894;2023-02-18T00:24:13;100727.09;;;6.77;78.03
13690;BME280;6917;52.194;9.894;2023-02-18T00:26:42;100724.94;;;6.74;78.10
13690;BME280;6917;52.194;9.894;2023-02-18T00:29:07;100728.75;;;6.73;78.23
13690;BME280;6917;52.194;9.894;2023-02-18T00:31:34;100725.50;;;6.71;77.92
13690;BME280;6917;52.194;9.894;2023-02-18T00:34:01;100723.63;;;6.67;78.22
13690;BME280;6917;52.194;9.894;2023-02-18T00:36:28;100717.31;;;6.76;78.13
13690;BME280;6917;52.194;9.894;2023-02-18T00:38:56;100732.81;;;6.76;77.58
13690;BME280;6917;52.194;9.894;2023-02-18T00:41:23;100736.34;;;6.71;77.96
13690;BME280;6917;52.194;9.894;2023-02-18T00:43:49;100733.13;;;6.69;78.32
13690;BME280;6917;52.194;9.894;2023-02-18T00:46:14;100727.69;;;6.64;78.67
13690;BME280;6917;52.194;9.894;2023-02-18T00:48:40;100737.22;;;6.62;78.84
13690;BME280;6917;52.194;9.894;2023-02-18T00:51:06;100730.41;;;6.64;78.87
13690;BME280;6917;52.194;9.894;2023-02-18T00:53:32;100728.78;;;6.68;78.67
13690;BME280;6917;52.194;9.894;2023-02-18T00:55:58;100727.41;;;6.71;78.56
13690;BME280;6917;52.194;9.894;2023-02-18T00:58:23;100733.38;;;6.73;78.23
13690;BME280;6917;52.194;9.894;2023-02-18T01:00:49;100739.31;;;6.75;78.39
13690;BME280;6917;52.194;9.894;2023-02-18T01:03:15;100741.78;;;6.71;78.56
13690;BME280;6917;52.194;9.894;2023-02-18T01:05:40;100736.94;;;6.68;78.76
13690;BME280;6917;52.194;9.894;2023-02-18T01:08:07;100734.47;;;6.72;78.22
13690;BME280;6917;52.194;9.894;2023-02-18T01:10:35;100731.75;;;6.72;78.26
13690;BME280;6917;52.194;9.894;2023-02-18T01:13:01;100740.72;;;6.62;78.95
13690;BME280;6917;52.194;9.894;2023-02-18T01:15:28;100748.13;;;6.51;79.65
13690;BME280;6917;52.194;9.894;2023-02-18T01:17:54;100741.31;;;6.54;79.82
13690;BME280;6917;52.194;9.894;2023-02-18T01:20:19;100738.31;;;6.55;79.86
13690;BME280;6917;52.194;9.894;2023-02-18T01:22:45;100732.34;;;6.59;79.94
13690;BME280;6917;52.194;9.894;2023-02-18T01:25:11;100740.44;;;6.64;79.96
13690;BME280;6917;52.194;9.894;2023-02-18T01:27:36;100743.97;;;6.69;79.67
13690;BME280;6917;52.194;9.894;2023-02-18T01:30:06;100740.97;;;6.71;79.68
13690;BME280;6917;52.194;9.894;2023-02-18T01:32:32;100742.59;;;6.72;79.91
13690;BME280;6917;52.194;9.894;2023-02-18T01:35:00;100740.66;;;6.77;79.93
13690;BME280;6917;52.194;9.894;2023-02-18T01:37:26;100742.28;;;6.78;79.91
13690;BME280;6917;52.194;9.894;2023-02-18T01:39:51;100742.28;;;6.78;79.81
13690;BME280;6917;52.194;9.894;2023-02-18T01:42:21;100753.16;;;6.78;79.79
13690;BME280;6917;52.194;9.894;2023-02-18T01:44:48;100734.69;;;6.80;79.87
13690;BME280;6917;52.194;9.894;2023-02-18T01:47:14;100736.03;;;6.83;80.22
13690;BME280;6917;52.194;9.894;2023-02-18T01:49:40;100721.63;;;6.88;80.40
13690;BME280;6917;52.194;9.894;2023-02-18T01:52:11;100735.16;;;6.93;80.45
13690;BME280;6917;52.194;9.894;2023-02-18T01:54:44;100737.06;;;6.97;80.31
13690;BME280;6917;52.194;9.894;2023-02-18T01:57:20;100732.16;;;6.99;80.83
13690;BME280;6917;52.194;9.894;2023-02-18T01:59:53;100729.97;;;7.01;80.84
13690;BME280;6917;52.194;9.894;2023-02-18T02:02:22;100730.78;;;7.02;80.60
13690;BME280;6917;52.194;9.894;2023-02-18T02:04:49;100730.53;;;6.98;80.97
13690;BME280;6917;52.194;9.894;2023-02-18T02:07:16;100729.44;;;6.94;81.48
13690;BME280;6917;52.194;9.894;2023-02-18T02:09:42;100725.09;;;6.98;81.94
13690;BME280;6917;52.194;9.894;2023-02-18T02:37:40;100707.78;;;6.84;89.17
13690;BME280;6917;52.194;9.894;2023-02-18T02:40:23;100707.22;;;6.87;89.95
13690;BME280;6917;52.194;9.894;2023-02-18T02:43:13;100697.19;;;6.88;90.39
13690;BME280;6917;52.194;9.894;2023-02-18T02:46:09;100700.94;;;6.92;90.51
13690;BME280;6917;52.194;9.894;2023-02-18T02:48:51;100685.97;;;6.94;90.90
13690;BME280;6917;52.194;9.894;2023-02-18T02:54:22;100688.69;;;6.99;91.91
13690;BME280;6917;52.194;9.894;2023-02-18T02:56:48;100690.31;;;7.00;92.69
13690;BME280;6917;52.194;9.894;2023-02-18T02:59:21;100680.53;;;6.99;93.29
13690;BME280;6917;52.194;9.894;2023-02-18T03:04:47;100672.38;;;6.99;95.54
13690;BME280;6917;52.194;9.894;2023-02-18T03:07:28;100672.38;;;6.99;96.10
13690;BME280;6917;52.194;9.894;2023-02-18T03:13:03;100673.19;;;7.00;98.16
13690;BME280;6917;52.194;9.894;2023-02-18T03:18:14;100663.16;;;7.00;99.31
13690;BME280;6917;52.194;9.894;2023-02-18T03:20:56;100659.63;;;7.00;99.65
13690;BME280;6917;52.194;9.894;2023-02-18T03:23:27;100662.56;;;7.03;100.00
13690;BME280;6917;52.194;9.894;2023-02-18T03:25:56;100660.66;;;7.04;100.00
13690;BME280;6917;52.194;9.894;2023-02-18T03:28:23;100652.22;;;7.05;100.00
13690;BME280;6917;52.194;9.894;2023-02-18T03:30:56;100650.84;;;7.08;100.00
13690;BME280;6917;52.194;9.894;2023-02-18T03:33:30;100642.16;;;7.11;100.00
13690;BME280;6917;52.194;9.894;2023-02-18T03:35:57;100625.06;;;7.10;100.00
13690;BME280;6917;52.194;9.894;2023-02-18T03:38:26;100621.75;;;7.13;100.00
13690;BME280;6917;52.194;9.894;2023-02-18T03:40:54;100617.66;;;7.16;100.00
13690;BME280;6917;52.194;9.894;2023-02-18T03:43:19;100606.50;;;7.18;100.00
13690;BME280;6917;52.194;9.894;2023-02-18T03:45:45;100601.34;;;7.16;100.00
13690;BME280;6917;52.194;9.894;2023-02-18T03:48:10;100597.03;;;7.15;100.00
13690;BME280;6917;52.194;9.894;2023-02-18T03:50:35;100595.97;;;7.11;100.00
13690;BME280;6917;52.194;9.894;2023-02-18T03:53:01;100590.03;;;7.09;100.00
13690;BME280;6917;52.194;9.894;2023-02-18T03:55:26;100597.06;;;7.10;100.00
13690;BME280;6917;52.194;9.894;2023-02-18T03:57:52;100607.13;;;7.09;100.00
13690;BME280;6917;52.194;9.894;2023-02-18T04:00:17;100595.97;;;7.11;100.00
13690;BME280;6917;52.194;9.894;2023-02-18T04:02:43;100603.31;;;7.10;100.00
13690;BME280;6917;52.194;9.894;2023-02-18T04:05:08;100594.63;;;7.08;100.00
13690;BME280;6917;52.194;9.894;2023-02-18T04:07:34;100588.91;;;7.10;100.00
13690;BME280;6917;52.194;9.894;2023-02-18T04:10:00;100586.44;;;7.13;100.00
13690;BME280;6917;52.194;9.894;2023-02-18T04:12:25;100588.06;;;7.14;100.00
13690;BME280;6917;52.194;9.894;2023-02-18T04:14:50;100579.91;;;7.14;100.00
13690;BME280;6917;52.194;9.894;2023-02-18T04:17:16;100581.25;;;7.17;100.00
13690;BME280;6917;52.194;9.894;2023-02-18T04:19:41;100578.22;;;7.19;100.00
13690;BME280;6917;52.194;9.894;2023-02-18T04:22:06;100571.19;;;7.18;100.00
13690;BME280;6917;52.194;9.894;2023-02-18T04:24:31;100562.28;;;7.12;100.00
13690;BME280;6917;52.194;9.894;2023-02-18T04:26:57;100568.00;;;7.10;100.00
13690;BME280;6917;52.194;9.894;2023-02-18T04:29:22;100564.78;;;7.03;100.00
13690;BME280;6917;52.194;9.894;2023-02-18T04:31:47;100565.34;;;7.00;100.00
13690;BME280;6917;52.194;9.894;2023-02-18T04:34:13;100558.31;;;6.99;100.00
13690;BME280;6917;52.194;9.894;2023-02-18T04:36:38;100561.03;;;6.94;100.00
13690;BME280;6917;52.194;9.894;2023-02-18T04:39:04;100552.66;;;6.91;100.00
13690;BME280;6917;52.194;9.894;2023-02-18T04:41:29;100543.75;;;6.85;100.00
13690;BME280;6917;52.194;9.894;2023-02-18T04:43:54;100540.00;;;6.81;100.00
13690;BME280;6917;52.194;9.894;2023-02-18T04:46:20;100538.94;;;6.77;100.00
13690;BME280;6917;52.194;9.894;2023-02-18T04:48:45;100527.81;;;6.73;100.00
13690;BME280;6917;52.194;9.894;2023-02-18T04:51:10;100520.19;;;6.75;100.00
13690;BME280;6917;52.194;9.894;2023-02-18T04:53:36;100515.59;;;6.76;100.00
13690;BME280;6917;52.194;9.894;2023-02-18T04:56:01;100511.78;;;6.77;100.00
13690;BME280;6917;52.194;9.894;2023-02-18T04:58:26;100511.22;;;6.80;100.00
13690;BME280;6917;52.194;9.894;2023-02-18T05:00:52;100496.28;;;6.77;100.00
13690;BME280;6917;52.194;9.894;2023-02-18T05:03:18;100498.97;;;6.82;100.00
13690;BME280;6917;52.194;9.894;2023-02-18T05:05:43;100497.06;;;6.83;100.00
13690;BME280;6917;52.194;9.894;2023-02-18T05:08:10;100491.06;;;6.86;100.00
13690;BME280;6917;52.194;9.894;2023-02-18T05:10:36;100485.94;;;6.84;100.00
13690;BME280;6917;52.194;9.894;2023-02-18T05:13:02;100482.63;;;6.88;100.00
13690;BME280;6917;52.194;9.894;2023-02-18T05:15:27;100483.44;;;6.88;100.00
13690;BME280;6917;52.194;9.894;2023-02-18T05:17:52;100469.28;;;6.91;100.00
13690;BME280;6917;52.194;9.894;2023-02-18T05:20:18;100467.09;;;6.93;100.00
13690;BME280;6917;52.194;9.894;2023-02-18T05:22:43;100468.44;;;6.96;100.00
13690;BME280;6917;52.194;9.894;2023-02-18T05:25:08;100463.53;;;6.98;100.00
13690;BME280;6917;52.194;9.894;2023-02-18T05:27:34;100461.84;;;7.02;100.00
13690;BME280;6917;52.194;9.894;2023-02-18T05:29:59;100449.88;;;7.03;100.00
13690;BME280;6917;52.194;9.894;2023-02-18T05:32:24;100452.31;;;7.04;100.00
13690;BME280;6917;52.194;9.894;2023-02-18T05:34:50;100443.59;;;7.07;100.00
13690;BME280;6917;52.194;9.894;2023-02-18T05:37:15;100431.34;;;7.10;100.00
13690;BME280;6917;52.194;9.894;2023-02-18T05:39:42;100436.50;;;7.11;100.00
13690;BME280;6917;52.194;9.894;2023-02-18T05:42:08;100426.16;;;7.13;100.00
13690;BME280;6917;52.194;9.894;2023-02-18T05:44:33;100421.44;;;7.19;100.00
13690;BME280;6917;52.194;9.894;2023-02-18T05:47:04;100417.34;;;7.22;100.00
13690;BME280;6917;52.194;9.894;2023-02-18T05:49:31;100423.31;;;7.24;100.00
13690;BME280;6917;52.194;9.894;2023-02-18T05:51:58;100420.03;;;7.27;100.00
13690;BME280;6917;52.194;9.894;2023-02-18T05:54:23;100416.19;;;7.28;100.00
13690;BME280;6917;52.194;9.894;2023-02-18T05:56:50;100402.31;;;7.29;100.00
13690;BME280;6917;52.194;9.894;2023-02-18T05:59:15;100395.78;;;7.30;100.00
13690;BME280;6917;52.194;9.894;2023-02-18T06:01:40;100403.34;;;7.33;100.00
13690;BME280;6917;52.194;9.894;2023-02-18T06:04:06;100393.28;;;7.34;100.00
13690;BME280;6917;52.194;9.894;2023-02-18T06:06:31;100385.13;;;7.34;100.00
13690;BME280;6917;52.194;9.894;2023-02-18T06:08:56;100375.06;;;7.34;100.00
13690;BME280;6917;52.194;9.894;2023-02-18T06:11:22;100373.75;;;7.32;100.00
13690;BME280;6917;52.194;9.894;2023-02-18T06:13:47;100369.13;;;7.32;100.00
13690;BME280;6917;52.194;9.894;2023-02-18T06:16:12;100362.88;;;7.32;100.00
13690;BME280;6917;52.194;9.894;2023-02-18T06:18:38;100369.41;;;7.31;100.00
13690;BME280;6917;52.194;9.894;2023-02-18T06:21:03;100360.16;;;7.32;100.00
13690;BME280;6917;52.194;9.894;2023-02-18T06:23:29;100360.69;;;7.34;100.00
13690;BME280;6917;52.194;9.894;2023-02-18T06:25:54;100346.28;;;7.33;100.00
13690;BME280;6917;52.194;9.894;2023-02-18T06:28:19;100344.38;;;7.34;100.00
13690;BME280;6917;52.194;9.894;2023-02-18T06:30:45;100345.69;;;7.36;100.00
13690;BME280;6917;52.194;9.894;2023-02-18T06:33:11;100326.41;;;7.38;100.00
13690;BME280;6917;52.194;9.894;2023-02-18T06:35:36;100322.84;;;7.37;100.00
13690;BME280;6917;52.194;9.894;2023-02-18T06:38:02;100322.59;;;7.39;100.00
13690;BME280;6917;52.194;9.894;2023-02-18T06:40:27;100324.75;;;7.37;100.00
13690;BME280;6917;52.194;9.894;2023-02-18T06:42:53;100325.31;;;7.39;100.00
13690;BME280;6917;52.194;9.894;2023-02-18T06:45:19;100307.28;;;7.43;100.00
13690;BME280;6917;52.194;9.894;2023-02-18T06:47:44;100297.53;;;7.42;100.00
13690;BME280;6917;52.194;9.894;2023-02-18T06:50:10;100296.34;;;7.48;100.00
13690;BME280;6917;52.194;9.894;2023-02-18T06:52:35;100287.59;;;7.51;100.00
13690;BME280;6917;52.194;9.894;2023-02-18T06:55:06;100277.75;;;7.55;100.00
13690;BME280;6917;52.194;9.894;2023-02-18T06:57:32;100271.44;;;7.60;100.00
13690;BME280;6917;52.194;9.894;2023-02-18T06:59:57;100270.03;;;7.62;100.00
13690;BME280;6917;52.194;9.894;2023-02-18T07:02:23;100262.06;;;7.66;100.00
13690;BME280;6917;52.194;9.894;2023-02-18T07:04:48;100259.09;;;7.67;100.00
13690;BME280;6917;52.194;9.894;2023-02-18T07:07:13;100252.25;;;7.70;100.00
13690;BME280;6917;52.194;9.894;2023-02-18T07:09:39;100246.72;;;7.75;100.00
13690;BME280;6917;52.194;9.894;2023-02-18T07:12:04;100234.09;;;7.65;100.00
13690;BME280;6917;52.194;9.894;2023-02-18T07:14:30;100219.91;;;7.68;100.00
13690;BME280;6917;52.194;9.894;2023-02-18T07:16:55;100219.16;;;7.82;100.00
13690;BME280;6917;52.194;9.894;2023-02-18T07:19:20;100219.66;;;7.84;100.00
13690;BME280;6917;52.194;9.894;2023-02-18T07:21:46;100205.78;;;7.99;100.00
13690;BME280;6917;52.194;9.894;2023-02-18T07:24:11;100195.00;;;8.07;100.00
13690;BME280;6917;52.194;9.894;2023-02-18T07:26:36;100197.97;;;8.25;100.00
13690;BME280;6917;52.194;9.894;2023-02-18T07:29:02;100191.13;;;8.41;100.00
13690;BME280;6917;52.194;9.894;2023-02-18T07:31:27;100180.00;;;8.51;100.00
13690;BME280;6917;52.194;9.894;2023-02-18T07:33:52;100172.56;;;8.57;100.00
13690;BME280;6917;52.194;9.894;2023-02-18T07:36:18;100164.47;;;8.65;100.00
13690;BME280;6917;52.194;9.894;2023-02-18T07:38:43;100153.16;;;8.72;100.00
13690;BME280;6917;52.194;9.894;2023-02-18T07:41:20;100158.19;;;8.79;100.00
13690;BME280;6917;52.194;9.894;2023-02-18T07:43:45;100160.00;;;8.83;100.00
13690;BME280;6917;52.194;9.894;2023-02-18T07:46:10;100162.13;;;8.86;100.00
13690;BME280;6917;52.194;9.894;2023-02-18T07:48:36;100169.19;;;8.87;100.00
13690;BME280;6917;52.194;9.894;2023-02-18T07:51:08;100164.72;;;8.91;100.00
13690;BME280;6917;52.194;9.894;2023-02-18T07:53:34;100167.84;;;8.99;100.00
13690;BME280;6917;52.194;9.894;2023-02-18T07:56:00;100164.50;;;9.02;100.00
13690;BME280;6917;52.194;9.894;2023-02-18T07:58:28;100165.16;;;9.07;100.00
13690;BME280;6917;52.194;9.894;2023-02-18T08:00:54;100170.00;;;9.10;100.00
13690;BME280;6917;52.194;9.894;2023-02-18T08:03:28;100168.28;;;9.14;100.00
13690;BME280;6917;52.194;9.894;2023-02-18T08:05:54;100168.28;;;9.14;100.00
13690;BME280;6917;52.194;9.894;2023-02-18T08:08:22;100156.28;;;9.15;100.00
13690;BME280;6917;52.194;9.894;2023-02-18T08:10:50;100155.66;;;9.18;100.00
13690;BME280;6917;52.194;9.894;2023-02-18T08:13:15;100156.13;;;9.20;100.00
13690;BME280;6917;52.194;9.894;2023-02-18T08:15:41;100148.16;;;9.24;100.00
13690;BME280;6917;52.194;9.894;2023-02-18T08:18:09;100144.19;;;9.30;100.00
13690;BME280;6917;52.194;9.894;2023-02-18T08:20:38;100149.66;;;9.30;100.00
13690;BME280;6917;52.194;9.894;2023-02-18T08:23:04;100161.03;;;9.32;100.00
13690;BME280;6917;52.194;9.894;2023-02-18T08:25:30;100163.91;;;9.27;100.00
13690;BME280;6917;52.194;9.894;2023-02-18T08:27:55;100148.34;;;9.28;100.00
13690;BME280;6917;52.194;9.894;2023-02-18T08:30:21;100142.09;;;9.27;100.00
13690;BME280;6917;52.194;9.894;2023-02-18T08:32:46;100141.56;;;9.25;100.00
13690;BME280;6917;52.194;9.894;2023-02-18T08:35:12;100144.31;;;9.25;100.00
13690;BME280;6917;52.194;9.894;2023-02-18T08:37:37;100138.03;;;9.24;100.00
13690;BME280;6917;52.194;9.894;2023-02-18T08:40:03;100146.44;;;9.28;100.00
13690;BME280;6917;52.194;9.894;2023-02-18T08:42:29;100145.31;;;9.29;100.00
13690;BME280;6917;52.194;9.894;2023-02-18T08:44:54;100130.56;;;9.30;100.00
13690;BME280;6917;52.194;9.894;2023-02-18T08:47:19;100143.06;;;9.31;100.00
13690;BME280;6917;52.194;9.894;2023-02-18T08:49:45;100130.75;;;9.34;100.00
13690;BME280;6917;52.194;9.894;2023-02-18T08:52:10;100139.16;;;9.46;100.00
13690;BME280;6917;52.194;9.894;2023-02-18T08:54:35;100128.81;;;9.57;100.00
13690;BME280;6917;52.194;9.894;2023-02-18T08:57:01;100141.84;;;9.68;100.00
13690;BME280;6917;52.194;9.894;2023-02-18T08:59:26;100126.81;;;9.71;100.00
13690;BME280;6917;52.194;9.894;2023-02-18T09:01:51;100132.75;;;9.73;100.00
13690;BME280;6917;52.194;9.894;2023-02-18T09:04:17;100123.44;;;9.74;100.00
13690;BME280;6917;52.194;9.894;2023-02-18T09:06:45;100138.88;;;9.78;100.00
13690;BME280;6917;52.194;9.894;2023-02-18T09:09:10;100145.59;;;9.81;100.00
13690;BME280;6917;52.194;9.894;2023-02-18T09:11:36;100147.09;;;9.87;100.00
13690;BME280;6917;52.194;9.894;2023-02-18T09:14:01;100138.91;;;9.87;100.00
13690;BME280;6917;52.194;9.894;2023-02-18T09:16:27;100132.34;;;9.88;100.00
13690;BME280;6917;52.194;9.894;2023-02-18T09:18:54;100123.03;;;9.89;100.00
13690;BME280;6917;52.194;9.894;2023-02-18T09:21:20;100137.97;;;9.92;100.00
13690;BME280;6917;52.194;9.894;2023-02-18T09:23:46;100117.41;;;9.94;100.00
13690;BME280;6917;52.194;9.894;2023-02-18T09:26:14;100114.69;;;9.94;100.00
13690;BME280;6917;52.194;9.894;2023-02-18T09:28:40;100114.38;;;9.96;100.00
13690;BME280;6917;52.194;9.894;2023-02-18T09:31:16;100116.78;;;9.97;100.00
13690;BME280;6917;52.194;9.894;2023-02-18T09:33:49;100117.31;;;9.99;100.00
13690;BME280;6917;52.194;9.894;2023-02-18T09:36:15;100119.06;;;10.04;100.00
13690;BME280;6917;52.194;9.894;2023-02-18T09:38:40;100132.72;;;10.12;100.00
13690;BME280;6917;52.194;9.894;2023-02-18T09:41:14;100123.94;;;10.16;100.00
13690;BME280;6917;52.194;9.894;2023-02-18T09:43:48;100124.53;;;10.12;100.00
13690;BME280;6917;52.194;9.894;2023-02-18T09:46:27;100130.19;;;10.16;100.00
13690;BME280;6917;52.194;9.894;2023-02-18T09:48:54;100142.72;;;10.17;100.00
13690;BME280;6917;52.194;9.894;2023-02-18T09:51:20;100125.53;;;10.17;100.00
13690;BME280;6917;52.194;9.894;2023-02-18T09:53:46;100129.06;;;10.17;100.00
13690;BME280;6917;52.194;9.894;2023-02-18T09:56:21;100124.25;;;10.14;100.00
13690;BME280;6917;52.194;9.894;2023-02-18T09:58:48;100118.00;;;10.13;100.00
13690;BME280;6917;52.194;9.894;2023-02-18T10:01:40;100111.41;;;10.14;100.00
13690;BME280;6917;52.194;9.894;2023-02-18T10:04:30;100114.63;;;10.17;100.00
13690;BME280;6917;52.194;9.894;2023-02-18T10:07:00;100122.44;;;10.09;100.00
13690;BME280;6917;52.194;9.894;2023-02-18T10:09:32;100112.66;;;10.08;100.00
13690;BME280;6917;52.194;9.894;2023-02-18T10:12:13;100122.28;;;10.06;100.00
13690;BME280;6917;52.194;9.894;2023-02-18T10:14:39;100109.75;;;10.05;100.00
13690;BME280;6917;52.194;9.894;2023-02-18T10:17:06;100099.66;;;10.05;100.00
13690;BME280;6917;52.194;9.894;2023-02-18T10:19:34;100092.44;;;10.09;100.00
13690;BME280;6917;52.194;9.894;2023-02-18T10:22:01;100100.94;;;10.08;100.00
13690;BME280;6917;52.194;9.894;2023-02-18T10:26:57;100104.50;;;10.17;100.00
13690;BME280;6917;52.194;9.894;2023-02-18T10:29:24;100074.50;;;10.26;100.00
13690;BME280;6917;52.194;9.894;2023-02-18T10:34:30;100112.25;;;10.24;100.00
13690;BME280;6917;52.194;9.894;2023-02-18T10:37:08;100113.84;;;10.25;100.00
13690;BME280;6917;52.194;9.894;2023-02-18T10:39:44;100103.25;;;10.23;100.00
13690;BME280;6917;52.194;9.894;2023-02-18T10:47:38;100097.59;;;10.20;100.00
13690;BME280;6917;52.194;9.894;2023-02-18T10:50:12;100111.09;;;10.16;100.00
13690;BME280;6917;52.194;9.894;2023-02-18T10:52:46;100107.34;;;10.03;100.00
13690;BME280;6917;52.194;9.894;2023-02-18T10:55:15;100090.44;;;9.93;100.00
13690;BME280;6917;52.194;9.894;2023-02-18T10:57:51;100092.03;;;9.85;100.00
13690;BME280;6917;52.194;9.894;2023-02-18T11:00:21;100099.44;;;9.84;100.00
13690;BME280;6917;52.194;9.894;2023-02-18T11:05:49;100092.34;;;9.83;100.00
13690;BME280;6917;52.194;9.894;2023-02-18T11:08:31;100065.41;;;9.91;100.00
13690;BME280;6917;52.194;9.894;2023-02-18T11:11:14;100071.50;;;9.96;100.00
13690;BME280;6917;52.194;9.894;2023-02-18T11:13:40;100080.03;;;9.95;100.00
13690;BME280;6917;52.194;9.894;2023-02-18T11:16:06;100074.06;;;9.93;100.00
13690;BME280;6917;52.194;9.894;2023-02-18T11:18:44;100081.47;;;9.92;100.00
13690;BME280;6917;52.194;9.894;2023-02-18T11:21:24;100094.94;;;9.89;100.00
13690;BME280;6917;52.194;9.894;2023-02-18T11:23:54;100090.72;;;9.82;100.00
13690;BME280;6917;52.194;9.894;2023-02-18T11:26:26;100066.00;;;9.79;100.00
13690;BME280;6917;52.194;9.894;2023-02-18T11:28:59;100093.13;;;9.75;100.00
13690;BME280;6917;52.194;9.894;2023-02-18T11:31:30;100091.81;;;9.73;100.00
13690;BME280;6917;52.194;9.894;2023-02-18T11:34:02;100083.00;;;9.76;100.00
13690;BME280;6917;52.194;9.894;2023-02-18T11:36:29;100071.13;;;9.72;100.00
13690;BME280;6917;52.194;9.894;2023-02-18T11:39:01;100080.53;;;9.66;100.00
13690;BME280;6917;52.194;9.894;2023-02-18T11:41:39;100087.13;;;9.65;100.00
13690;BME280;6917;52.194;9.894;2023-02-18T11:44:21;100085.50;;;9.64;100.00
13690;BME280;6917;52.194;9.894;2023-02-18T11:47:22;100092.56;;;9.56;100.00
13690;BME280;6917;52.194;9.894;2023-02-18T11:50:14;100079.53;;;9.53;100.00
13690;BME280;6917;52.194;9.894;2023-02-18T11:52:45;100082.38;;;9.48;100.00
13690;BME280;6917;52.194;9.894;2023-02-18T11:57:43;100089.28;;;9.45;100.00
13690;BME280;6917;52.194;9.894;2023-02-18T12:02:49;100073.66;;;9.37;100.00
13690;BME280;6917;52.194;9.894;2023-02-18T12:05:23;100081.19;;;9.32;100.00
13690;BME280;6917;52.194;9.894;2023-02-18T12:07:56;100076.84;;;9.31;100.00
13690;BME280;6917;52.194;9.894;2023-02-18T12:13:04;100054.41;;;9.34;100.00
13690;BME280;6917;52.194;9.894;2023-02-18T12:23:37;100056.88;;;9.44;100.00
13690;BME280;6917;52.194;9.894;2023-02-18T12:29:31;100068.84;;;9.34;100.00
13690;BME280;6917;52.194;9.894;2023-02-18T12:34:52;100074.94;;;9.31;100.00
13690;BME280;6917;52.194;9.894;2023-02-18T12:49:02;100123.50;;;9.29;100.00
13690;BME280;6917;52.194;9.894;2023-02-18T12:57:45;100101.50;;;9.25;100.00
13690;BME280;6917;52.194;9.894;2023-02-18T13:00:22;100091.22;;;9.22;100.00
13690;BME280;6917;52.194;9.894;2023-02-18T13:05:42;100095.06;;;9.21;100.00
13690;BME280;6917;52.194;9.894;2023-02-18T13:13:21;100090.41;;;9.22;100.00
13690;BME280;6917;52.194;9.894;2023-02-18T13:15:52;100091.41;;;9.26;100.00
13690;BME280;6917;52.194;9.894;2023-02-18T13:18:29;100091.91;;;9.28;100.00
13690;BME280;6917;52.194;9.894;2023-02-18T13:21:00;100098.81;;;9.34;100.00
13690;BME280;6917;52.194;9.894;2023-02-18T13:23:32;100096.09;;;9.34;100.00
13690;BME280;6917;52.194;9.894;2023-02-18T13:26:01;100093.03;;;9.27;100.00
13690;BME280;6917;52.194;9.894;2023-02-18T13:28:43;100072.44;;;9.21;100.00
13690;BME280;6917;52.194;9.894;2023-02-18T13:31:25;100101.31;;;9.22;100.00
13690;BME280;6917;52.194;9.894;2023-02-18T13:34:16;100079.69;;;9.25;100.00
13690;BME280;6917;52.194;9.894;2023-02-18T13:36:53;100082.63;;;9.29;100.00
13690;BME280;6917;52.194;9.894;2023-02-18T13:39:23;100106.03;;;9.30;100.00
13690;BME280;6917;52.194;9.894;2023-02-18T13:41:50;100101.69;;;9.29;100.00
13690;BME280;6917;52.194;9.894;2023-02-18T13:46:51;100120.16;;;9.32;100.00
13690;BME280;6917;52.194;9.894;2023-02-18T13:49:22;100105.41;;;9.33;100.00
13690;BME280;6917;52.194;9.894;2023-02-18T13:51:49;100111.34;;;9.35;100.00
13690;BME280;6917;52.194;9.894;2023-02-18T13:54:27;100111.34;;;9.35;100.00
13690;BME280;6917;52.194;9.894;2023-02-18T13:57:00;100115.03;;;9.39;100.00
13690;BME280;6917;52.194;9.894;2023-02-18T14:01:52;100113.34;;;9.43;100.00
13690;BME280;6917;52.194;9.894;2023-02-18T14:07:37;100134.44;;;9.60;100.00
13690;BME280;6917;52.194;9.894;2023-02-18T14:36:40;100140.38;;;9.40;100.00
13690;BME280;6917;52.194;9.894;2023-02-18T14:48:33;100147.91;;;9.12;100.00
13690;BME280;6917;52.194;9.894;2023-02-18T14:51:03;100149.53;;;9.13;100.00
13690;BME280;6917;52.194;9.894;2023-02-18T14:53:29;100147.41;;;9.10;100.00
13690;BME280;6917;52.194;9.894;2023-02-18T14:55:58;100158.81;;;9.12;100.00
13690;BME280;6917;52.194;9.894;2023-02-18T14:58:32;100150.13;;;9.10;100.00
13690;BME280;6917;52.194;9.894;2023-02-18T15:01:21;100148.50;;;9.09;100.00
13690;BME280;6917;52.194;9.894;2023-02-18T15:03:48;100156.19;;;9.07;100.00
13690;BME280;6917;52.194;9.894;2023-02-18T15:06:22;100157.50;;;9.09;100.00
13690;BME280;6917;52.194;9.894;2023-02-18T15:08:48;100153.66;;;9.10;100.00
13690;BME280;6917;52.194;9.894;2023-02-18T15:11:13;100186.06;;;9.12;100.00
13690;BME280;6917;52.194;9.894;2023-02-18T15:13:44;100155.47;;;9.15;100.00
13690;BME280;6917;52.194;9.894;2023-02-18T15:16:31;100164.81;;;9.22;100.00
13690;BME280;6917;52.194;9.894;2023-02-18T15:19:02;100181.66;;;9.24;100.00
13690;BME280;6917;52.194;9.894;2023-02-18T15:21:31;100177.22;;;9.29;100.00
13690;BME280;6917;52.194;9.894;2023-02-18T15:26:45;100194.91;;;9.40;100.00
13690;BME280;6917;52.194;9.894;2023-02-18T15:29:25;100201.88;;;9.46;100.00
13690;BME280;6917;52.194;9.894;2023-02-18T15:31:52;100194.50;;;9.46;100.00
13690;BME280;6917;52.194;9.894;2023-02-18T15:34:28;100208.63;;;9.48;100.00
13690;BME280;6917;52.194;9.894;2023-02-18T15:36:56;100193.88;;;9.49;100.00